Time;durP1;ratioP1;P1;durP2;ratioP2;P2;SDS_P1;SDS_P2;PMS_P1;PMS_P2;Temp;Humidity;BMP_temperature;BMP_pressure;BME280_temperature;BME280_humidity;BME280_pressure;Samples;Min_cycle;Max_cycle;Signal;HPM_P1;HPM_P2
2022/08/22 00:00:55;;;;;;;7.00;2.85;;;26.10;96.70;;;;;;5059050;28;20048;-75
2022/08/22 00:03:32;;;;;;;;;;;26.10;96.70;;;;;;5054280;28;20424;-74
2022/08/22 00:06:10;;;;;;;6.45;2.78;;;26.10;96.70;;;;;;5052670;28;20015;-75
2022/08/22 00:08:53;;;;;;;6.45;2.67;;;26.00;96.70;;;;;;5046777;28;20167;-75
2022/08/22 00:11:41;;;;;;;6.75;3.00;;;25.90;96.70;;;;;;5057977;28;20064;-75
2022/08/22 00:14:18;;;;;;;5.57;2.30;;;25.90;96.70;;;;;;5047909;28;20043;-74
2022/08/22 00:16:56;;;;;;;7.68;3.05;;;25.80;96.70;;;;;;5063953;28;20068;-75
2022/08/22 00:19:38;;;;;;;4.50;3.15;;;25.80;96.70;;;;;;5052625;28;20040;-74
2022/08/22 00:22:15;;;;;;;5.32;3.30;;;25.70;96.70;;;;;;5038381;28;20048;-75
2022/08/22 00:24:48;;;;;;;9.43;3.13;;;25.60;96.70;;;;;;5048477;28;20055;-75
2022/08/22 00:27:20;;;;;;;7.00;2.60;;;25.50;96.70;;;;;;5041440;28;20057;-75
2022/08/22 00:29:54;;;;;;;5.38;2.90;;;25.40;96.70;;;;;;5042129;28;20405;-75
2022/08/22 00:32:28;;;;;;;7.63;3.10;;;25.40;96.70;;;;;;5044165;28;20048;-75
2022/08/22 00:34:59;;;;;;;5.88;3.13;;;25.40;96.70;;;;;;5043429;28;20059;-75
2022/08/22 00:37:33;;;;;;;4.45;2.90;;;25.50;96.70;;;;;;5037126;28;20051;-74
2022/08/22 00:40:19;;;;;;;9.13;3.17;;;25.60;96.70;;;;;;5039074;28;20132;-75
2022/08/22 00:43:17;;;;;;;8.55;3.42;;;25.60;96.70;;;;;;5074536;28;20051;-75
2022/08/22 00:45:57;;;;;;;;;;;25.50;96.70;;;;;;5055774;28;20049;-75
2022/08/22 00:48:55;;;;;;;9.10;3.10;;;25.50;96.70;;;;;;5043449;28;19929;-74
2022/08/22 00:51:42;;;;;;;;;;;25.60;96.70;;;;;;4989967;28;20063;-75
2022/08/22 00:54:14;;;;;;;;;;;25.60;96.70;;;;;;5046207;28;19924;-75
2022/08/22 00:57:17;;;;;;;7.63;2.83;;;25.40;96.70;;;;;;5046921;28;19928;-75
2022/08/22 01:00:15;;;;;;;8.02;2.95;;;25.30;96.70;;;;;;5043602;28;20075;-75
2022/08/22 01:03:10;;;;;;;6.57;3.10;;;25.00;96.70;;;;;;5040865;28;20525;-75
2022/08/22 01:06:00;;;;;;;11.05;4.15;;;24.90;96.70;;;;;;5040344;28;20068;-75
2022/08/22 01:08:45;;;;;;;10.07;3.75;;;24.90;96.70;;;;;;5056842;28;20136;-75
2022/08/22 01:11:40;;;;;;;8.93;3.67;;;24.90;96.70;;;;;;5065005;28;20147;-74
2022/08/22 01:14:26;;;;;;;7.75;3.25;;;25.10;96.70;;;;;;5025238;28;20059;-75
2022/08/22 01:17:41;;;;;;;7.70;3.35;;;25.30;96.70;;;;;;5043486;28;20044;-75
2022/08/22 01:21:06;;;;;;;6.80;3.28;;;25.20;96.70;;;;;;5046814;28;20118;-75
2022/08/22 01:24:37;;;;;;;7.53;3.50;;;25.30;96.70;;;;;;5054402;28;20041;-75
2022/08/22 01:27:51;;;;;;;8.80;3.38;;;25.40;96.70;;;;;;4941675;28;20055;-75
2022/08/22 01:30:51;;;;;;;4.90;3.63;;;25.40;96.70;;;;;;4944031;28;20061;-75
2022/08/22 01:33:50;;;;;;;10.60;3.30;;;25.40;96.70;;;;;;5052937;28;20036;-74
2022/08/22 01:36:54;;;;;;;7.72;3.47;;;25.40;96.70;;;;;;5020023;28;20138;-75
2022/08/22 01:39:51;;;;;;;6.57;2.60;;;25.30;96.70;;;;;;5043102;28;20562;-75
2022/08/22 01:42:49;;;;;;;8.52;3.50;;;25.40;96.70;;;;;;5052310;28;20068;-75
2022/08/22 01:45:41;;;;;;;8.52;3.08;;;25.30;96.70;;;;;;5046992;28;20056;-74
2022/08/22 01:48:15;;;;;;;5.38;2.70;;;25.20;96.70;;;;;;5027396;28;20148;-75
2022/08/22 01:50:48;;;;;;;6.15;2.50;;;25.10;96.70;;;;;;5057135;28;20040;-75
2022/08/22 01:53:23;;;;;;;5.38;2.90;;;25.00;96.70;;;;;;5055316;28;21375;-75
2022/08/22 01:56:11;;;;;;;7.22;2.92;;;25.00;96.70;;;;;;5053073;28;20040;-74
2022/08/22 01:58:52;;;;;;;5.53;2.65;;;24.90;96.70;;;;;;5074541;28;20044;-74
2022/08/22 02:01:29;;;;;;;3.20;2.40;;;24.90;96.70;;;;;;5037974;28;20052;-75
2022/08/22 02:04:04;;;;;;;7.18;2.75;;;24.90;96.70;;;;;;5047713;28;20053;-74
2022/08/22 02:06:43;;;;;;;6.13;2.78;;;25.00;96.70;;;;;;5052550;28;20037;-75
2022/08/22 02:09:28;;;;;;;6.53;3.53;;;24.90;96.70;;;;;;5053200;28;20637;-74
2022/08/22 02:12:13;;;;;;;7.18;3.28;;;24.90;96.70;;;;;;5050826;28;20554;-75
2022/08/22 02:14:57;;;;;;;6.15;3.45;;;25.00;96.70;;;;;;5027217;28;20056;-75
2022/08/22 02:17:30;;;;;;;4.50;2.60;;;25.00;96.70;;;;;;5043455;28;20044;-75
2022/08/22 02:20:06;;;;;;;5.40;2.53;;;25.10;96.70;;;;;;5034866;28;20040;-74
2022/08/22 02:22:52;;;;;;;5.13;2.67;;;25.10;96.70;;;;;;5059820;28;20431;-74
2022/08/22 02:25:24;;;;;;;5.03;2.40;;;25.00;96.70;;;;;;5063012;28;20048;-75
2022/08/22 02:28:02;;;;;;;5.43;2.90;;;25.00;96.70;;;;;;5037768;28;20049;-75
2022/08/22 02:30:45;;;;;;;5.53;2.50;;;24.90;96.70;;;;;;5039557;28;20048;-75
2022/08/22 02:33:24;;;;;;;5.05;1.98;;;24.90;96.70;;;;;;5035174;28;20528;-75
2022/08/22 02:35:59;;;;;;;5.53;2.30;;;24.70;96.70;;;;;;5046315;28;20048;-74
2022/08/22 02:38:34;;;;;;;4.90;2.35;;;24.70;96.70;;;;;;5017667;28;20106;-75
2022/08/22 02:41:15;;;;;;;4.88;2.40;;;24.70;96.70;;;;;;5061202;28;20043;-75
2022/08/22 02:43:49;;;;;;;4.00;2.45;;;24.70;96.70;;;;;;5052841;28;20143;-75
2022/08/22 02:46:27;;;;;;;6.18;2.70;;;24.80;96.70;;;;;;5027046;28;20506;-75
2022/08/22 02:49:03;;;;;;;6.60;3.05;;;24.70;96.70;;;;;;5053957;28;20037;-74
2022/08/22 02:51:40;;;;;;;6.57;2.92;;;24.70;96.70;;;;;;5052276;28;20442;-73
2022/08/22 02:54:15;;;;;;;3.92;2.08;;;24.70;96.70;;;;;;5053748;28;20059;-76
2022/08/22 02:56:51;;;;;;;5.67;2.67;;;24.70;96.70;;;;;;5052078;28;20040;-73
2022/08/22 02:59:31;;;;;;;4.07;2.42;;;24.70;96.70;;;;;;5056023;28;20040;-74
2022/08/22 03:02:31;;;;;;;5.18;1.95;;;24.80;96.70;;;;;;5033208;28;20049;-76
2022/08/22 03:05:02;;;;;;;4.72;1.75;;;24.80;96.70;;;;;;5056112;28;20053;-74
2022/08/22 03:07:38;;;;;;;2.15;1.75;;;24.90;96.70;;;;;;5047090;28;20044;-74
2022/08/22 03:10:17;;;;;;;4.53;2.15;;;24.80;96.70;;;;;;5054231;28;20158;-74
2022/08/22 03:12:59;;;;;;;5.18;2.20;;;24.70;96.70;;;;;;5021778;28;20045;-75
2022/08/22 03:15:35;;;;;;;5.68;2.22;;;24.80;96.70;;;;;;5038977;28;20078;-74
2022/08/22 03:18:15;;;;;;;6.85;3.55;;;24.80;96.70;;;;;;5043024;28;20071;-74
2022/08/22 03:20:51;;;;;;;9.05;4.60;;;24.80;96.70;;;;;;5040954;28;20098;-75
2022/08/22 03:23:24;;;;;;;;;;;24.80;96.70;;;;;;5037479;28;20047;-74
2022/08/22 03:26:00;;;;;;;11.52;6.10;;;24.90;96.70;;;;;;5019428;28;20279;-74
2022/08/22 03:28:41;;;;;;;15.40;6.90;;;24.90;96.70;;;;;;5058720;28;20495;-73
2022/08/22 03:31:30;;;;;;;11.75;5.60;;;24.90;96.70;;;;;;5038228;28;20490;-74
2022/08/22 03:34:19;;;;;;;11.77;5.47;;;24.90;96.70;;;;;;5056734;28;20127;-74
2022/08/22 03:36:57;;;;;;;12.35;5.60;;;24.90;96.70;;;;;;5036198;28;20040;-74
2022/08/22 03:39:46;;;;;;;15.57;5.82;;;24.90;96.70;;;;;;5049789;28;20527;-75
2022/08/22 03:42:59;;;;;;;14.07;6.05;;;24.90;96.70;;;;;;5060074;28;20502;-74
2022/08/22 03:46:11;;;;;;;15.90;6.18;;;24.80;96.70;;;;;;4953186;28;20482;-74
2022/08/22 03:49:04;;;;;;;20.92;6.07;;;24.80;96.70;;;;;;5058053;28;20127;-74
2022/08/22 03:51:46;;;;;;;15.93;6.13;;;24.70;96.70;;;;;;5054668;28;20041;-74
2022/08/22 03:54:56;;;;;;;13.88;6.28;;;24.70;96.70;;;;;;5053718;28;20052;-74
2022/08/22 03:57:54;;;;;;;15.70;6.53;;;24.80;96.70;;;;;;5005684;28;20122;-74
2022/08/22 04:00:31;;;;;;;;;;;24.70;96.70;;;;;;5055410;28;20044;-74
2022/08/22 04:03:34;;;;;;;17.60;7.47;;;24.60;96.70;;;;;;5047814;28;20019;-74
2022/08/22 04:06:37;;;;;;;20.55;6.90;;;24.70;96.70;;;;;;5041030;28;20135;-75
2022/08/22 04:09:30;;;;;;;15.82;7.05;;;24.70;96.70;;;;;;5070304;28;20469;-74
2022/08/22 04:12:22;;;;;;;14.25;6.70;;;24.50;96.70;;;;;;5061265;28;20044;-74
2022/08/22 04:15:28;;;;;;;15.20;5.38;;;24.40;96.70;;;;;;5027360;28;20047;-74
2022/08/22 04:18:27;;;;;;;11.55;5.45;;;24.40;96.70;;;;;;5052808;28;20529;-74
2022/08/22 04:21:28;;;;;;;12.93;4.75;;;24.50;96.70;;;;;;5044154;28;20037;-74
2022/08/22 04:24:19;;;;;;;9.07;4.85;;;24.40;96.70;;;;;;5051760;28;20140;-74
2022/08/22 04:26:51;;;;;;;7.28;4.10;;;24.50;96.70;;;;;;5037873;28;20136;-75
2022/08/22 04:29:27;;;;;;;6.28;3.83;;;24.50;96.70;;;;;;5052357;28;20041;-75
2022/08/22 04:32:03;;;;;;;5.80;4.07;;;24.30;96.70;;;;;;5046127;28;20047;-75
2022/08/22 04:34:36;;;;;;;7.60;4.70;;;24.30;96.70;;;;;;5028740;28;20509;-76
2022/08/22 04:37:13;;;;;;;6.00;4.00;;;24.40;96.70;;;;;;5038812;28;20409;-75
2022/08/22 04:39:49;;;;;;;7.03;4.30;;;24.30;96.70;;;;;;5057442;28;20495;-75
2022/08/22 04:42:21;;;;;;;6.78;4.07;;;24.30;96.70;;;;;;5017079;28;20133;-76
2022/08/22 04:45:09;;;;;;;7.03;4.40;;;24.20;96.70;;;;;;5044640;28;20049;-75
2022/08/22 04:47:40;;;;;;;6.03;4.93;;;24.20;96.70;;;;;;5038482;28;20053;-75
2022/08/22 04:50:16;;;;;;;6.85;4.63;;;24.20;96.70;;;;;;5055157;28;20135;-76
2022/08/22 04:53:02;;;;;;;7.80;5.17;;;24.20;96.70;;;;;;5042728;28;20147;-76
2022/08/22 04:55:36;;;;;;;12.50;6.05;;;24.30;96.70;;;;;;5051056;28;20128;-75
2022/08/22 04:58:18;;;;;;;10.43;5.45;;;24.30;96.70;;;;;;5037847;28;20084;-76
2022/08/22 05:00:56;;;;;;;10.80;5.47;;;24.30;96.70;;;;;;5040156;28;20134;-76
2022/08/22 05:03:27;;;;;;;7.30;4.93;;;24.40;96.70;;;;;;5022281;28;20044;-75
2022/08/22 05:05:59;;;;;;;8.20;5.38;;;24.30;96.70;;;;;;5016944;28;20055;-75
2022/08/22 05:08:32;;;;;;;7.20;4.80;;;24.30;96.70;;;;;;5060695;28;20044;-76
2022/08/22 05:11:04;;;;;;;6.97;4.80;;;24.30;96.70;;;;;;5055076;28;20053;-76
2022/08/22 05:13:40;;;;;;;8.38;5.25;;;24.40;96.70;;;;;;5046469;28;20097;-75
2022/08/22 05:16:13;;;;;;;11.77;5.53;;;24.40;96.70;;;;;;5060121;28;20040;-76
2022/08/22 05:18:47;;;;;;;9.10;5.82;;;24.30;96.70;;;;;;5059778;28;20045;-75
2022/08/22 05:21:19;;;;;;;8.75;5.53;;;24.30;96.70;;;;;;5050340;28;20509;-76
2022/08/22 05:23:53;;;;;;;9.88;5.40;;;24.30;96.70;;;;;;5038028;28;20502;-75
2022/08/22 05:26:21;;;;;;;8.93;6.00;;;24.30;96.70;;;;;;5048702;28;20057;-75
2022/08/22 05:28:53;;;;;;;9.40;6.20;;;24.40;96.70;;;;;;5058428;28;20490;-76
2022/08/22 05:31:25;;;;;;;9.20;5.50;;;24.50;96.70;;;;;;5047815;28;20717;-75
2022/08/22 05:33:58;;;;;;;9.82;6.22;;;24.40;96.70;;;;;;5044086;28;20206;-76
2022/08/22 05:36:31;;;;;;;10.20;5.97;;;24.50;96.70;;;;;;5055197;28;20453;-75
2022/08/22 05:39:08;;;;;;;11.07;5.65;;;24.50;96.70;;;;;;5042219;28;20040;-76
2022/08/22 05:41:38;;;;;;;12.27;5.88;;;24.60;96.70;;;;;;5022262;28;20399;-76
2022/08/22 05:44:15;;;;;;;11.23;5.70;;;24.60;96.70;;;;;;5039052;28;20380;-76
2022/08/22 05:46:45;;;;;;;8.90;5.13;;;24.70;96.70;;;;;;5027900;28;20044;-76
2022/08/22 05:49:18;;;;;;;10.90;5.25;;;24.60;96.70;;;;;;5037807;28;20048;-75
2022/08/22 05:52:03;;;;;;;6.75;4.97;;;24.70;96.70;;;;;;5050419;28;20124;-76
2022/08/22 05:54:45;;;;;;;7.60;5.03;;;24.70;96.70;;;;;;5074338;28;20063;-75
2022/08/22 05:57:24;;;;;;;8.38;5.00;;;24.70;96.70;;;;;;5043289;28;20582;-75
2022/08/22 05:59:59;;;;;;;9.98;4.85;;;24.60;96.70;;;;;;5024930;28;20135;-75
2022/08/22 06:02:38;;;;;;;5.72;4.20;;;24.60;96.70;;;;;;5051828;28;20073;-76
2022/08/22 06:05:07;;;;;;;6.00;3.88;;;24.70;96.70;;;;;;5047687;28;20110;-76
2022/08/22 06:07:43;;;;;;;8.48;4.10;;;24.70;96.70;;;;;;5055714;28;20041;-75
2022/08/22 06:10:22;;;;;;;6.50;3.90;;;24.70;96.70;;;;;;5062713;28;20033;-76
2022/08/22 06:12:57;;;;;;;5.93;3.85;;;24.70;96.70;;;;;;5071700;28;20044;-75
2022/08/22 06:15:33;;;;;;;7.47;4.18;;;24.80;96.70;;;;;;5034327;28;20429;-75
2022/08/22 06:18:09;;;;;;;7.05;3.63;;;24.90;96.70;;;;;;5053698;28;20153;-75
2022/08/22 06:20:42;;;;;;;8.82;4.00;;;24.90;96.70;;;;;;5054890;28;20048;-75
2022/08/22 06:23:14;;;;;;;8.50;4.18;;;24.90;96.70;;;;;;5050219;28;20053;-75
2022/08/22 06:25:49;;;;;;;6.88;3.65;;;24.90;96.70;;;;;;5059612;28;20056;-76
2022/08/22 06:28:20;;;;;;;6.13;3.95;;;24.90;96.70;;;;;;5021947;28;20132;-76
2022/08/22 06:30:52;;;;;;;8.43;4.20;;;24.80;96.70;;;;;;5045500;28;20044;-75
2022/08/22 06:33:24;;;;;;;7.93;4.13;;;24.90;96.70;;;;;;5039199;28;20068;-76
2022/08/22 06:39:02;;;;;;;8.35;3.60;;;24.70;96.70;;;;;;5032620;28;20045;-76
2022/08/22 06:41:35;;;;;;;6.85;3.90;;;24.70;96.70;;;;;;5052312;28;20117;-74
2022/08/22 06:44:05;;;;;;;8.10;3.38;;;24.70;96.70;;;;;;5055759;28;20093;-74
2022/08/22 06:46:37;;;;;;;6.90;3.75;;;24.70;96.70;;;;;;5037541;28;20041;-74
2022/08/22 06:49:07;;;;;;;6.85;4.10;;;24.80;96.70;;;;;;5043603;28;20045;-76
2022/08/22 06:51:37;;;;;;;8.85;4.20;;;24.90;96.70;;;;;;5056223;28;20494;-76
2022/08/22 06:54:14;;;;;;;8.63;3.92;;;24.80;96.70;;;;;;5040050;28;20043;-78
2022/08/22 06:56:47;;;;;;;5.82;3.97;;;24.90;96.70;;;;;;5059189;28;20044;-75
2022/08/22 06:59:17;;;;;;;6.80;3.97;;;24.90;96.70;;;;;;5038371;28;20128;-77
2022/08/22 07:01:50;;;;;;;9.20;4.35;;;25.00;96.70;;;;;;5026370;28;20471;-78
2022/08/22 07:04:25;;;;;;;6.20;4.13;;;25.10;96.70;;;;;;5038654;28;20056;-79
2022/08/22 07:06:55;;;;;;;5.57;3.47;;;25.20;96.70;;;;;;5044024;28;20094;-78
2022/08/22 07:09:26;;;;;;;7.22;3.63;;;25.30;96.70;;;;;;5054289;28;20052;-80
2022/08/22 07:12:00;;;;;;;10.77;3.95;;;25.20;96.70;;;;;;5030485;28;20107;-79
2022/08/22 07:14:31;;;;;;;5.80;3.50;;;25.20;96.70;;;;;;5042876;28;20060;-80
2022/08/22 07:17:02;;;;;;;6.20;3.65;;;25.30;96.70;;;;;;5038382;28;20589;-80
2022/08/22 07:19:33;;;;;;;5.93;3.22;;;25.40;96.70;;;;;;5046084;28;20041;-76
2022/08/22 07:22:12;;;;;;;5.85;3.60;;;25.40;96.70;;;;;;5039508;28;20072;-76
2022/08/22 07:24:45;;;;;;;7.05;3.75;;;25.40;96.70;;;;;;5044130;28;20044;-78
2022/08/22 07:27:30;;;;;;;6.38;3.78;;;25.40;96.70;;;;;;5033414;28;20075;-80
2022/08/22 07:30:33;;;;;;;12.80;4.88;;;25.50;96.70;;;;;;5018083;28;20056;-80
2022/08/22 07:33:09;;;;;;;5.43;3.60;;;25.50;96.70;;;;;;5044832;28;20044;-76
2022/08/22 07:35:59;;;;;;;5.90;3.40;;;25.60;96.70;;;;;;5029298;28;20067;-76
2022/08/22 07:38:41;;;;;;;4.25;3.55;;;25.70;96.70;;;;;;5049183;28;20052;-80
2022/08/22 07:41:14;;;;;;;4.30;3.13;;;25.70;96.70;;;;;;5026217;28;20144;-79
2022/08/22 07:43:48;;;;;;;7.15;3.58;;;25.70;96.70;;;;;;5049976;28;20551;-78
2022/08/22 07:46:27;;;;;;;6.15;2.70;;;25.80;96.70;;;;;;5039728;28;20048;-78
2022/08/22 07:49:00;;;;;;;4.85;3.05;;;25.80;96.70;;;;;;5026155;28;20507;-79
2022/08/22 07:51:43;;;;;;;4.03;2.78;;;25.90;96.70;;;;;;5055393;28;20142;-79
2022/08/22 07:54:14;;;;;;;5.38;3.00;;;25.90;96.70;;;;;;5055868;28;20052;-78
2022/08/22 07:56:53;;;;;;;6.93;3.80;;;25.80;96.70;;;;;;5039812;28;20585;-78
2022/08/22 07:59:25;;;;;;;6.20;2.83;;;25.90;96.70;;;;;;5035088;28;20045;-79
2022/08/22 08:01:57;;;;;;;8.57;3.17;;;25.80;96.70;;;;;;5057467;28;20045;-79
2022/08/22 08:04:30;;;;;;;8.50;3.50;;;25.90;96.70;;;;;;5026515;28;20501;-80
2022/08/22 08:07:04;;;;;;;4.73;3.93;;;25.90;96.70;;;;;;5020741;28;20060;-79
2022/08/22 08:09:37;;;;;;;7.82;4.03;;;25.90;96.70;;;;;;5018061;28;20335;-79
2022/08/22 08:12:09;;;;;;;6.78;4.18;;;25.90;96.70;;;;;;5019505;28;20768;-79
2022/08/22 08:14:42;;;;;;;7.90;4.15;;;26.00;96.70;;;;;;5012626;28;20053;-79
2022/08/22 08:17:17;;;;;;;7.90;5.20;;;26.10;96.70;;;;;;5021602;28;20049;-77
2022/08/22 08:19:47;;;;;;;11.57;5.95;;;26.20;96.70;;;;;;5011332;28;20926;-76
2022/08/22 08:22:18;;;;;;;6.30;3.90;;;26.20;96.70;;;;;;5017110;28;20041;-79
2022/08/22 08:25:00;;;;;;;6.72;3.92;;;26.20;96.70;;;;;;4998823;28;20593;-79
2022/08/22 08:30:38;;;;;;;5.18;3.42;;;26.40;96.70;;;;;;5012481;28;20746;-79
2022/08/22 08:33:12;;;;;;;9.90;3.63;;;26.40;96.70;;;;;;5019826;28;20133;-79
2022/08/22 08:36:03;;;;;;;5.10;3.78;;;26.50;96.70;;;;;;5014317;28;20049;-80
2022/08/22 08:38:41;;;;;;;6.68;3.63;;;26.60;96.70;;;;;;5021959;28;20049;-80
2022/08/22 08:41:35;;;;;;;6.53;3.70;;;26.70;96.70;;;;;;5015431;28;20037;-80
2022/08/22 08:44:20;;;;;;;7.20;3.38;;;26.80;96.70;;;;;;5016254;28;20053;-80
2022/08/22 08:47:16;;;;;;;7.07;3.47;;;26.80;96.70;;;;;;5015451;28;20100;-79
2022/08/22 08:50:17;;;;;;;5.68;3.60;;;26.80;96.70;;;;;;5018269;28;20042;-80
2022/08/22 08:53:23;;;;;;;5.28;3.08;;;26.80;96.70;;;;;;5016771;28;20104;-79
2022/08/22 08:55:58;;;;;;;3.70;2.60;;;27.00;96.70;;;;;;5023342;28;20136;-80
2022/08/22 08:58:36;;;;;;;7.18;3.08;;;27.20;96.70;;;;;;5021151;28;20034;-79
2022/08/22 09:01:19;;;;;;;7.20;3.10;;;27.30;96.70;;;;;;5019943;28;20153;-81
2022/08/22 09:04:18;;;;;;;3.55;2.70;;;27.20;96.70;;;;;;5028010;28;20059;-80
2022/08/22 09:07:20;;;;;;;3.42;2.47;;;27.30;96.70;;;;;;5050754;28;20045;-80
2022/08/22 09:10:10;;;;;;;5.43;2.70;;;27.30;96.70;;;;;;5007939;28;20049;-81
2022/08/22 09:12:52;;;;;;;3.38;2.67;;;27.40;96.70;;;;;;5056324;28;20044;-79
2022/08/22 09:15:52;;;;;;;4.90;2.58;;;27.50;96.70;;;;;;5040481;28;20135;-79
2022/08/22 09:18:55;;;;;;;3.58;2.53;;;27.40;96.70;;;;;;5029140;28;20045;-78
2022/08/22 09:21:49;;;;;;;4.57;2.08;;;27.60;96.70;;;;;;5024114;28;20045;-80
2022/08/22 09:24:59;;;;;;;3.67;2.50;;;27.80;96.70;;;;;;5061563;28;20045;-78
2022/08/22 09:27:36;;;;;;;5.30;2.13;;;27.90;96.70;;;;;;5052518;28;20494;-79
2022/08/22 09:30:09;;;;;;;4.60;2.22;;;27.90;96.70;;;;;;5058349;28;20117;-78
2022/08/22 09:32:47;;;;;;;4.65;2.13;;;27.90;96.70;;;;;;5037946;28;20037;-79
2022/08/22 09:35:23;;;;;;;1.77;1.40;;;28.10;96.70;;;;;;5045119;28;20063;-79
2022/08/22 09:38:15;;;;;;;1.80;1.38;;;28.30;96.70;;;;;;5057350;28;20549;-78
2022/08/22 09:40:54;;;;;;;2.63;1.38;;;28.10;96.70;;;;;;5059352;28;20041;-80
2022/08/22 09:43:37;;;;;;;3.45;1.33;;;28.20;96.70;;;;;;5038095;28;20057;-78
2022/08/22 09:46:17;;;;;;;1.55;1.30;;;28.40;96.70;;;;;;5036470;28;20518;-79
2022/08/22 09:49:01;;;;;;;2.30;1.17;;;28.60;96.70;;;;;;5059851;28;20364;-79
2022/08/22 09:51:43;;;;;;;2.05;1.10;;;28.70;96.70;;;;;;5049977;28;20502;-77
2022/08/22 09:54:38;;;;;;;2.58;1.48;;;28.80;96.70;;;;;;5027176;28;20055;-76
2022/08/22 09:57:20;;;;;;;1.83;1.20;;;29.00;96.70;;;;;;5053359;28;20048;-77
2022/08/22 10:00:18;;;;;;;1.50;1.15;;;29.10;96.70;;;;;;5040794;28;20250;-76
2022/08/22 10:03:02;;;;;;;2.13;1.30;;;29.10;96.70;;;;;;5010312;28;20575;-76
2022/08/22 10:05:38;;;;;;;2.20;1.05;;;29.00;96.70;;;;;;5035781;28;20053;-75
2022/08/22 10:08:30;;;;;;;1.55;1.30;;;29.10;96.70;;;;;;5034223;28;20414;-77
2022/08/22 10:11:25;;;;;;;2.67;1.40;;;29.20;96.70;;;;;;5036800;28;20068;-76
2022/08/22 10:14:07;;;;;;;1.83;1.15;;;29.30;96.70;;;;;;5040267;28;20132;-76
2022/08/22 10:16:58;;;;;;;1.73;1.10;;;29.40;96.70;;;;;;5038656;28;20037;-76
2022/08/22 10:19:31;;;;;;;1.63;1.10;;;29.50;96.70;;;;;;5030966;28;20064;-76
2022/08/22 10:22:35;;;;;;;1.98;1.40;;;29.60;96.70;;;;;;5034681;28;20084;-77
2022/08/22 10:25:33;;;;;;;1.38;1.13;;;29.70;96.70;;;;;;5035422;28;20144;-76
2022/08/22 10:28:30;;;;;;;3.05;1.30;;;29.80;96.70;;;;;;5046216;28;20049;-77
2022/08/22 10:31:10;;;;;;;2.65;0.90;;;29.80;96.70;;;;;;5038010;28;20446;-76
2022/08/22 10:33:45;;;;;;;1.15;0.90;;;29.90;96.70;;;;;;5034071;28;20053;-78
2022/08/22 10:36:21;;;;;;;2.03;1.27;;;30.10;96.70;;;;;;5035341;28;20211;-78
2022/08/22 10:38:54;;;;;;;1.77;1.30;;;30.10;96.70;;;;;;5021905;28;20049;-77
2022/08/22 10:41:30;;;;;;;1.15;0.70;;;30.20;96.70;;;;;;5037599;28;20155;-79
2022/08/22 10:44:08;;;;;;;1.25;1.10;;;30.40;96.70;;;;;;5016201;28;20045;-78
2022/08/22 10:46:45;;;;;;;1.33;1.05;;;30.60;96.70;;;;;;5014904;28;20538;-78
2022/08/22 10:49:23;;;;;;;1.98;1.50;;;30.80;96.70;;;;;;5033336;28;20064;-76
2022/08/22 10:52:03;;;;;;;1.08;0.98;;;30.70;96.70;;;;;;5012373;28;20064;-75
2022/08/22 10:54:50;;;;;;;2.08;0.88;;;30.90;96.70;;;;;;5021754;28;20511;-76
2022/08/22 10:57:48;;;;;;;1.33;0.80;;;30.90;96.70;;;;;;5047533;28;20057;-77
2022/08/22 11:00:42;;;;;;;1.52;1.05;;;30.90;96.70;;;;;;5001859;28;20466;-77
2022/08/22 11:03:23;;;;;;;1.15;0.90;;;31.00;96.70;;;;;;5001659;28;20188;-77
2022/08/22 11:05:59;;;;;;;1.52;0.73;;;30.80;96.70;;;;;;5001529;28;20127;-78
2022/08/22 11:08:54;;;;;;;1.40;0.60;;;30.90;96.70;;;;;;5012604;28;20641;-76
2022/08/22 11:11:41;;;;;;;1.35;0.55;;;31.20;96.70;;;;;;5014790;28;20049;-76
2022/08/22 11:14:33;;;;;;;0.55;0.50;;;31.10;96.70;;;;;;5015344;28;20137;-74
2022/08/22 11:17:15;;;;;;;1.05;0.70;;;31.10;96.70;;;;;;5021664;28;20045;-76
2022/08/22 11:20:17;;;;;;;1.52;0.88;;;31.30;96.70;;;;;;5021267;28;20045;-75
2022/08/22 11:23:06;;;;;;;2.10;0.73;;;31.40;96.70;;;;;;5010999;28;20053;-75
2022/08/22 11:25:51;;;;;;;1.50;1.02;;;31.80;96.70;;;;;;5017430;28;20068;-75
2022/08/22 11:28:47;;;;;;;2.78;0.65;;;31.90;96.70;;;;;;5017167;28;20056;-76
2022/08/22 11:31:27;;;;;;;2.63;0.80;;;32.30;96.70;;;;;;4981105;28;20499;-76
2022/08/22 11:34:16;;;;;;;1.42;0.70;;;32.50;96.70;;;;;;5019928;28;20484;-75
2022/08/22 11:36:52;;;;;;;3.38;1.20;;;32.60;96.70;;;;;;5010088;28;20050;-75
2022/08/22 11:39:29;;;;;;;1.50;0.98;;;32.60;96.70;;;;;;5018339;28;20049;-76
2022/08/22 11:42:05;;;;;;;1.73;0.90;;;32.60;96.70;;;;;;5019442;28;20048;-75
2022/08/22 11:44:40;;;;;;;1.70;1.08;;;32.80;96.70;;;;;;5014922;28;20046;-76
2022/08/22 11:47:21;;;;;;;2.80;0.88;;;33.10;96.70;;;;;;5016999;28;20045;-75
2022/08/22 11:50:01;;;;;;;1.92;1.05;;;33.00;96.70;;;;;;5014635;28;20184;-76
2022/08/22 11:52:52;;;;;;;2.05;0.93;;;33.00;96.70;;;;;;5012604;28;20073;-76
2022/08/22 11:55:31;;;;;;;2.05;0.80;;;33.10;96.70;;;;;;5013422;28;20124;-76
2022/08/22 11:58:26;;;;;;;1.05;0.70;;;33.10;96.70;;;;;;5003668;28;20045;-77
2022/08/22 12:01:02;;;;;;;1.40;1.00;;;33.10;96.70;;;;;;5010985;28;20049;-76
2022/08/22 12:04:00;;;;;;;1.50;0.63;;;33.10;96.70;;;;;;5018542;28;20049;-76
2022/08/22 12:07:10;;;;;;;0.88;0.70;;;33.00;96.70;;;;;;5022864;28;20072;-76
2022/08/22 12:09:50;;;;;;;0.45;0.32;;;32.90;96.70;;;;;;5013752;28;20399;-76
2022/08/22 12:12:34;;;;;;;2.38;0.60;;;33.00;96.70;;;;;;5023266;28;20041;-76
2022/08/22 12:15:15;;;;;;;1.23;0.80;;;33.10;96.70;;;;;;5014623;28;20054;-76
2022/08/22 12:18:31;;;;;;;1.10;0.50;;;33.30;96.70;;;;;;5022746;28;20076;-76
2022/08/22 12:21:13;;;;;;;;;;;33.50;96.70;;;;;;5024599;28;20056;-77
2022/08/22 12:24:18;;;;;;;0.70;0.60;;;34.00;96.10;;;;;;5019206;28;19929;-77
2022/08/22 12:27:02;;;;;;;0.70;0.60;;;34.30;95.20;;;;;;5018532;28;20129;-77
2022/08/22 12:29:43;;;;;;;0.95;0.70;;;34.60;95.40;;;;;;5016377;28;20393;-77
2022/08/22 12:32:47;;;;;;;1.13;0.60;;;34.50;94.20;;;;;;5019615;28;20046;-78
2022/08/22 12:35:33;;;;;;;1.80;0.45;;;34.00;93.80;;;;;;5017862;28;20056;-78
2022/08/22 12:38:25;;;;;;;2.13;0.50;;;34.00;94.80;;;;;;5017827;28;20046;-77
2022/08/22 12:41:15;;;;;;;1.15;0.43;;;33.90;93.20;;;;;;5016829;28;20500;-77
2022/08/22 12:44:31;;;;;;;1.85;0.57;;;33.70;93.60;;;;;;5015624;28;20045;-77
2022/08/22 12:47:28;;;;;;;0.75;0.40;;;34.10;91.80;;;;;;5018497;28;20038;-77
2022/08/22 12:50:22;;;;;;;2.92;0.40;;;34.00;90.30;;;;;;5019199;28;20054;-76
2022/08/22 12:53:05;;;;;;;0.55;0.40;;;34.10;88.10;;;;;;5023133;28;20043;-77
2022/08/22 12:56:04;;;;;;;0.25;0.20;;;34.20;87.70;;;;;;5018720;28;20081;-77
2022/08/22 12:58:53;;;;;;;1.70;0.47;;;34.50;85.90;;;;;;5015163;28;20069;-78
2022/08/22 13:01:24;;;;;;;0.85;0.40;;;34.60;90.00;;;;;;5020084;28;20115;-78
2022/08/22 13:04:14;;;;;;;0.80;0.52;;;34.50;89.50;;;;;;5024846;28;20048;-77
2022/08/22 13:07:07;;;;;;;1.60;0.60;;;34.30;88.40;;;;;;5052575;28;20048;-78
2022/08/22 13:09:38;;;;;;;0.30;0.30;;;34.20;90.30;;;;;;5026498;28;20513;-77
2022/08/22 13:12:22;;;;;;;0.90;0.52;;;34.30;89.10;;;;;;5035847;28;20069;-77
2022/08/22 13:14:55;;;;;;;2.50;0.50;;;34.30;90.10;;;;;;5045007;28;20044;-78
2022/08/22 13:17:25;;;;;;;2.45;0.55;;;34.40;89.90;;;;;;5036721;28;20060;-78
2022/08/22 13:20:07;;;;;;;0.52;0.40;;;34.30;89.60;;;;;;5058873;28;20045;-77
2022/08/22 13:22:40;;;;;;;0.98;0.50;;;33.90;91.20;;;;;;5035974;28;20055;-78
2022/08/22 13:25:24;;;;;;;1.10;0.35;;;33.60;91.30;;;;;;5044181;28;20052;-77
2022/08/22 13:27:57;;;;;;;0.40;0.40;;;33.40;91.50;;;;;;5050529;28;20090;-77
2022/08/22 13:30:31;;;;;;;1.77;0.55;;;33.40;91.60;;;;;;5056339;28;20123;-78
2022/08/22 13:33:08;;;;;;;2.58;0.88;;;33.10;96.70;;;;;;5057779;28;20041;-77
2022/08/22 13:35:43;;;;;;;1.52;0.90;;;33.10;96.70;;;;;;5039850;28;20045;-78
2022/08/22 13:38:22;;;;;;;3.28;1.10;;;33.10;96.70;;;;;;5047232;28;20044;-78
2022/08/22 13:40:55;;;;;;;1.65;0.90;;;33.00;96.70;;;;;;5051612;28;20047;-77
2022/08/22 13:43:29;;;;;;;5.07;0.90;;;32.90;96.70;;;;;;5021121;28;20147;-76
2022/08/22 13:46:00;;;;;;;2.45;0.90;;;33.00;96.70;;;;;;5041790;28;20148;-76
2022/08/22 13:48:45;;;;;;;1.23;0.57;;;33.00;96.70;;;;;;5040236;28;20044;-76
2022/08/22 13:51:23;;;;;;;3.88;0.95;;;33.00;96.70;;;;;;5038003;28;20603;-76
2022/08/22 13:54:00;;;;;;;1.33;0.63;;;33.30;96.70;;;;;;5057549;28;20536;-77
2022/08/22 13:56:46;;;;;;;2.45;0.60;;;33.30;96.70;;;;;;5057541;28;20445;-76
2022/08/22 13:59:28;;;;;;;2.72;0.70;;;33.40;96.70;;;;;;5040381;28;20036;-76
2022/08/22 14:02:32;;;;;;;2.35;0.73;;;33.70;96.70;;;;;;5027917;28;20505;-76
2022/08/22 14:05:09;;;;;;;3.17;1.20;;;33.90;96.70;;;;;;5055276;28;20103;-76
2022/08/22 14:07:39;;;;;;;;;;;34.10;96.70;;;;;;5056435;28;20151;-76
2022/08/22 14:10:18;;;;;;;3.72;0.75;;;34.30;95.70;;;;;;5040187;28;19929;-79
2022/08/22 14:13:17;;;;;;;0.45;0.45;;;34.30;95.70;;;;;;5057439;28;20040;-77